KBJC/BJC METAR and TAF weather

Enter ICAO airport designator
Station Type Date Time Source
KBJC METAR 2019/04/25 01:45 UTC NOAA

KBJC 250145Z VRB05KT 10SM SCT120 19/00 A2992


Station Type Date Time Source
KBJC Decoded METAR 2019/04/25 01:45 UTC NOAA

Broomfield / Jeffco, CO, United States (KBJC) 39-55N 105-07W
Apr 24, 2019 - 09:45 PM EDT / 2019.04.25 0145 UTC
Wind: Variable at 6 MPH (5 KT):0
Visibility: 10 mile(s):0
Sky conditions: partly cloudy
Temperature: 66 F (19 C)
Dew Point: 32 F (0 C)
Relative Humidity: 27%
Pressure (altimeter): 29.92 in. Hg (1013 hPa)
ob: KBJC 250145Z VRB05KT 10SM SCT120 19/00 A2992
cycle: 2

Station Type Date Time Source
KBJC TAF 2019/04/24 18:42 UTC NOAA

TAF KBJC 241740Z 2418/2518 05007KT P6SM SCT120
FM242300 33006KT P6SM VCSH BKN100
FM250700 01014G22KT P6SM SCT030 BKN070
FM250900 03011KT P6SM OVC012 PROB30 2509/2512 4SM -SHRA BR BKN006
FM251500 34010KT P6SM SCT015 BKN045
FM251700 03007KT P6SM SCT050

Example: see airport list